ドレスデン の空港の天気 - METARとTAF

ドレスデン空港 ( EDDC / DRS ) - ドイツ ドレスデン
飛行場実況気象(Metar)
観測時間10/18 10:20 CEST (10/18 08:20 UTC)
風向・風速南 4m/s
視程10km以上
天気現象
なし
気温15℃
湿度77%
気圧1013hPa
METAREDDC 180820Z 17008KT CAVOK 15/11 Q1013 NOSIG
過去の天気等 Google飛行場航空写真 Wunderground天気予報

過去48時間のMETAR

飛行場予報(TAF)
発表時間: 10/18 07:00 CEST (10/18 05:00 UTC)
予報対象時間: 18日8時 CEST ~ 19日8時 CEST
風向・風速南 5m/s
視程10km以上
なし
18日20時 CEST ~ 18日22時 CEST に徐々に
風向・風速南 3m/s
TAF EDDC 180500Z 1806/1906 17010KT CAVOK
BECMG 1818/1820 18005KT